地図

経路データ

SID SEASON NUMBER BASIN SUBBASIN NAME ISO_TIME NATURE LAT LON WMO_WIND WMO_PRES WMO_AGENCY TRACK_TYPE DIST2LAND LANDFALL IFLAG USA_AGENCY USA_ATCF_ID USA_LAT USA_LON USA_RECORD USA_STATUS USA_WIND USA_PRES USA_SSHS USA_R34_NE USA_R34_SE USA_R34_SW USA_R34_NW USA_R50_NE USA_R50_SE USA_R50_SW USA_R50_NW USA_R64_NE USA_R64_SE USA_R64_SW USA_R64_NW USA_POCI USA_ROCI USA_RMW USA_EYE TOKYO_LAT TOKYO_LON TOKYO_GRADE TOKYO_WIND TOKYO_PRES TOKYO_R50_DIR TOKYO_R50_LONG TOKYO_R50_SHORT TOKYO_R30_DIR TOKYO_R30_LONG TOKYO_R30_SHORT TOKYO_LAND CMA_LAT CMA_LON CMA_CAT CMA_WIND CMA_PRES HKO_LAT HKO_LON HKO_CAT HKO_WIND HKO_PRES NEWDELHI_LAT NEWDELHI_LON NEWDELHI_GRADE NEWDELHI_WIND NEWDELHI_PRES NEWDELHI_CI NEWDELHI_DP NEWDELHI_POCI REUNION_LAT REUNION_LON REUNION_TYPE REUNION_WIND REUNION_PRES REUNION_TNUM REUNION_CI REUNION_RMW REUNION_R34_NE REUNION_R34_SE REUNION_R34_SW REUNION_R34_NW REUNION_R50_NE REUNION_R50_SE REUNION_R50_SW REUNION_R50_NW REUNION_R64_NE REUNION_R64_SE REUNION_R64_SW REUNION_R64_NW BOM_LAT BOM_LON BOM_TYPE BOM_WIND BOM_PRES BOM_TNUM BOM_CI BOM_RMW BOM_R34_NE BOM_R34_SE BOM_R34_SW BOM_R34_NW BOM_R50_NE BOM_R50_SE BOM_R50_SW BOM_R50_NW BOM_R64_NE BOM_R64_SE BOM_R64_SW BOM_R64_NW BOM_ROCI BOM_POCI BOM_EYE BOM_POS_METHOD BOM_PRES_METHOD NADI_LAT NADI_LON NADI_CAT NADI_WIND NADI_PRES WELLINGTON_LAT WELLINGTON_LON WELLINGTON_WIND WELLINGTON_PRES DS824_LAT DS824_LON DS824_STAGE DS824_WIND DS824_PRES TD9636_LAT TD9636_LON TD9636_STAGE TD9636_WIND TD9636_PRES TD9635_LAT TD9635_LON TD9635_WIND TD9635_PRES TD9635_ROCI NEUMANN_LAT NEUMANN_LON NEUMANN_CLASS NEUMANN_WIND NEUMANN_PRES MLC_LAT MLC_LON MLC_CLASS MLC_WIND MLC_PRES USA_GUST BOM_GUST BOM_GUST_PER REUNION_GUST REUNION_GUST_PER USA_SEAHGT USA_SEARAD_NE USA_SEARAD_SE USA_SEARAD_SW USA_SEARAD_NW STORM_SPEED STORM_DIR
1931183S32155 1932 19 SP EA NOT_NAMED 1931-07-01 12:00:00 NR -32.3000 154.500 main 169 169 __________O___ -1 -32.3000 154.500 7 6 143
1931183S32155 1932 19 SP EA NOT_NAMED 1931-07-01 15:00:00 NR -32.5316 154.707 main 194 194 __________P___ -1 -32.5316 154.707 7 6 142
1931183S32155 1932 19 SP EA NOT_NAMED 1931-07-01 18:00:00 NR -32.7504 154.911 main 226 226 __________P___ -1 -32.7504 154.911 7 5 140
1931183S32155 1932 19 SP EA NOT_NAMED 1931-07-01 21:00:00 NR -32.9440 155.110 main 248 248 __________P___ -1 -32.9440 155.110 7 5 137
1931183S32155 1932 19 SP EA NOT_NAMED 1931-07-02 00:00:00 NR -33.1000 155.300 main 272 272 __________O___ -1 -33.1000 155.300 7 4 131
1931183S32155 1932 19 SP EA NOT_NAMED 1931-07-02 03:00:00 NR -33.2108 155.479 main 293 293 __________P___ -1 -33.2108 155.479 7 3 123
1931183S32155 1932 19 SP EA NOT_NAMED 1931-07-02 06:00:00 NR -33.2873 155.651 main 314 314 __________P___ -1 -33.2873 155.651 7 3 115
1931183S32155 1932 19 SP EA NOT_NAMED 1931-07-02 09:00:00 NR -33.3451 155.822 main 323 323 __________P___ -1 -33.3451 155.822 7 3 111
1931183S32155 1932 19 SP EA NOT_NAMED 1931-07-02 12:00:00 NR -33.4000 156.000 main 344 344 __________O___ -1 -33.4000 156.000 7 2 121
1931183S32155 1932 19 SP EA NOT_NAMED 1931-07-02 15:00:00 NR -33.4633 156.056 main 356 356 __________P___ -1 -33.4633 156.056 7 2 137
1931183S32155 1932 19 SP EA NOT_NAMED 1931-07-02 18:00:00 NR -33.5288 156.140 main 356 356 __________P___ -1 -33.5288 156.140 7 3 120
1931183S32155 1932 19 SP EA NOT_NAMED 1931-07-02 21:00:00 NR -33.6051 156.354 main 386 386 __________P___ -1 -33.6051 156.354 7 6 107
1931183S32155 1932 19 SP EA NOT_NAMED 1931-07-03 00:00:00 NR -33.7000 156.800 main 425 425 __________O___ -1 -33.7000 156.800 7 11 102
1931183S32155 1932 19 SP EA NOT_NAMED 1931-07-03 03:00:00 NR -33.8307 157.599 main 499 499 __________P___ -1 -33.8307 157.599 7 15 100
1931183S32155 1932 19 SP EA NOT_NAMED 1931-07-03 06:00:00 NR -33.9703 158.635 main 593 593 __________P___ -1 -33.9703 158.635 7 18 98
1931183S32155 1932 19 SP EA NOT_NAMED 1931-07-03 09:00:00 NR -34.0989 159.803 main 700 700 __________P___ -1 -34.0989 159.803 7 20 97
1931183S32155 1932 19 SP MM NOT_NAMED 1931-07-03 12:00:00 NR -34.2000 161.000 main 808 808 __________O___ -1 -34.2000 161.000 7 19 95
1931183S32155 1932 19 SP MM NOT_NAMED 1931-07-03 15:00:00 NR -34.2641 162.142 main 908 860 __________P___ -1 -34.2641 162.142 7 18 93
1931183S32155 1932 19 SP MM NOT_NAMED 1931-07-03 18:00:00 NR -34.2966 163.227 main 860 769 __________P___ -1 -34.2966 163.227 7 18 91
1931183S32155 1932 19 SP MM NOT_NAMED 1931-07-03 21:00:00 NR -34.3061 164.273 main 760 677 __________P___ -1 -34.3061 164.273 7 17 90
1931183S32155 1932 19 SP MM NOT_NAMED 1931-07-04 00:00:00 NR -34.3000 165.300 main 668 __________O___ -1 -34.3000 165.300 7 17 90

デジタル台風データ・検索

IBTrACS Databaseについて

本データベースは、米国NOAAが公開する1842年以降の世界の熱帯低気圧のベストトラックデータアーカイブInternational Best Track Archive for Climate Stewardship (IBTrACS)を、ウェブで閲覧しやすい形式に変換したものです。

最終更新日:2021-10-08